createdAt,value
2018-11-01T00:00:01.615Z,9.03
2018-11-01T00:05:01.902Z,9.03
2018-11-01T00:10:01.209Z,9.03
2018-11-01T00:20:01.796Z,8.72
2018-11-01T00:25:02.050Z,8.68
2018-11-01T00:30:01.475Z,8.58
2018-11-01T00:35:01.767Z,8.42
2018-11-01T00:40:02.054Z,8.3
2018-11-01T00:45:01.350Z,8.39
2018-11-01T00:50:01.654Z,8.41
2018-11-01T00:55:01.950Z,8.35
2018-11-01T01:00:01.234Z,8.29
2018-11-01T01:05:01.579Z,8.26
2018-11-01T01:10:01.869Z,8.27
2018-11-01T01:15:01.132Z,8.23
2018-11-01T01:20:01.452Z,8.33
2018-11-01T01:25:01.836Z,8.47
2018-11-01T01:30:01.123Z,8.56
2018-11-01T01:35:01.465Z,8.6
2018-11-01T01:40:01.858Z,8.67
2018-11-01T01:45:01.191Z,8.76
2018-11-01T01:50:01.701Z,8.8
2018-11-01T01:55:01.988Z,8.88
2018-11-01T02:00:01.321Z,8.86
2018-11-01T02:05:01.764Z,8.82
2018-11-01T02:10:02.050Z,8.78
2018-11-01T02:15:01.431Z,8.73
2018-11-01T02:20:01.205Z,8.71
2018-11-01T02:25:01.532Z,8.56
2018-11-01T02:30:01.897Z,8.45
2018-11-01T02:35:01.232Z,8.36
2018-11-01T02:40:01.566Z,8.39
2018-11-01T02:45:01.892Z,8.27
2018-11-01T02:50:01.178Z,8.23
2018-11-01T02:55:01.490Z,8.22
2018-11-01T03:00:01.780Z,8.23
2018-11-01T03:05:02.089Z,8.27
2018-11-01T03:10:01.346Z,8.3
2018-11-01T03:15:01.634Z,8.29
2018-11-01T03:20:01.904Z,8.34
2018-11-01T03:25:01.299Z,8.36
2018-11-01T03:30:01.562Z,8.35
2018-11-01T03:35:01.904Z,8.35
2018-11-01T03:40:02.020Z,8.29
2018-11-01T03:45:01.309Z,8.22
2018-11-01T03:50:01.605Z,8.17
2018-11-01T03:55:01.903Z,8
2018-11-01T04:00:01.910Z,7.82
2018-11-01T04:05:01.211Z,7.42
2018-11-01T04:10:01.505Z,7.16
2018-11-01T04:15:01.934Z,7.1
2018-11-01T04:20:01.589Z,7.19
2018-11-01T04:25:01.861Z,7.37
2018-11-01T04:30:01.129Z,7.46
2018-11-01T04:35:01.465Z,7.49
2018-11-01T04:40:01.751Z,7.62
2018-11-01T04:45:02.005Z,7.64
2018-11-01T04:50:01.302Z,7.61
2018-11-01T04:55:01.616Z,7.62
2018-11-01T05:00:01.916Z,7.69
2018-11-01T05:05:01.291Z,7.69
2018-11-01T05:10:01.937Z,7.7
2018-11-01T05:15:01.275Z,7.71
2018-11-01T05:20:01.690Z,7.67
2018-11-01T05:25:02.020Z,7.62
2018-11-01T05:30:01.323Z,7.62
2018-11-01T05:35:01.632Z,7.54
2018-11-01T05:40:01.396Z,7.47
2018-11-01T05:45:01.703Z,7.37
2018-11-01T05:50:02.007Z,7.29
2018-11-01T05:55:01.275Z,7.25
2018-11-01T06:00:01.667Z,7.22
2018-11-01T06:05:01.153Z,7.2
2018-11-01T06:10:01.458Z,7.23
2018-11-01T06:15:01.784Z,7.2
2018-11-01T06:20:02.047Z,7.28
2018-11-01T06:25:01.301Z,7.34
2018-11-01T06:30:01.592Z,7.45
2018-11-01T06:35:01.900Z,7.55
2018-11-01T06:40:01.164Z,7.59
2018-11-01T06:45:01.586Z,7.62
2018-11-01T06:50:01.948Z,7.69
2018-11-01T06:55:01.189Z,7.79
2018-11-01T07:00:01.481Z,7.82
2018-11-01T07:05:01.760Z,7.85
2018-11-01T07:10:02.048Z,7.88
2018-11-01T07:15:01.309Z,7.89
2018-11-01T07:20:01.612Z,7.91
2018-11-01T07:25:01.929Z,7.98
2018-11-01T07:30:01.200Z,7.99
2018-11-01T07:35:01.522Z,8
2018-11-01T07:40:01.946Z,8.01
2018-11-01T07:45:01.646Z,8
2018-11-01T07:50:01.909Z,7.98
2018-11-01T07:55:01.202Z,8.02
2018-11-01T08:00:01.484Z,8.04
2018-11-01T08:05:01.810Z,8.03
2018-11-01T08:10:02.040Z,8
2018-11-01T08:15:01.296Z,8.02
2018-11-01T08:20:01.822Z,8.06
2018-11-01T08:25:02.068Z,8.12
2018-11-01T08:30:01.314Z,8.18
2018-11-01T08:35:01.645Z,8.26
2018-11-01T08:40:01.954Z,8.32
2018-11-01T08:45:01.192Z,8.37
2018-11-01T08:50:01.646Z,8.41
2018-11-01T08:55:01.100Z,8.46
2018-11-01T09:00:01.458Z,8.48
2018-11-01T09:05:01.808Z,8.48
2018-11-01T09:10:02.069Z,8.48
2018-11-01T09:15:01.325Z,8.52
2018-11-01T09:20:01.663Z,8.52
2018-11-01T09:25:01.933Z,8.59
2018-11-01T09:30:01.176Z,8.62
2018-11-01T09:35:01.520Z,8.68
2018-11-01T09:40:01.822Z,8.7
2018-11-01T09:45:01.113Z,8.7
2018-11-01T09:50:01.441Z,8.73
2018-11-01T09:55:01.745Z,8.75
2018-11-01T10:00:02.028Z,8.77
2018-11-01T10:05:01.359Z,8.81
2018-11-01T10:10:01.650Z,8.82
2018-11-01T10:15:02.015Z,8.87
2018-11-01T10:20:01.553Z,8.93
2018-11-01T10:25:01.827Z,9
2018-11-01T10:30:02.069Z,9.03
2018-11-01T10:35:01.350Z,9.07
2018-11-01T10:40:01.653Z,9.18
2018-11-01T10:45:01.927Z,9.25
2018-11-01T10:50:01.189Z,9.33
2018-11-01T10:55:01.556Z,9.39
2018-11-01T11:00:01.990Z,9.41
2018-11-01T11:05:01.717Z,9.52
2018-11-01T11:10:01.941Z,9.63
2018-11-01T11:15:01.202Z,9.7
2018-11-01T11:20:01.621Z,9.69
2018-11-01T11:25:01.186Z,9.68
2018-11-01T11:30:01.593Z,9.67
2018-11-01T11:35:01.296Z,9.6
2018-11-01T11:40:01.595Z,9.48
2018-11-01T11:45:01.907Z,9.29
2018-11-01T11:50:01.207Z,9.18
2018-11-01T11:55:01.502Z,9.1
2018-11-01T12:00:01.792Z,9.11
2018-11-01T12:05:02.094Z,9.16
2018-11-01T12:10:01.367Z,9.21
2018-11-01T12:15:01.665Z,9.25
2018-11-01T12:20:01.933Z,9.34
2018-11-01T12:25:01.234Z,9.45
2018-11-01T12:30:01.525Z,9.59
2018-11-01T12:35:01.907Z,9.69
2018-11-01T12:40:01.193Z,9.74
2018-11-01T12:45:01.486Z,9.83
2018-11-01T12:50:01.871Z,9.83
2018-11-01T12:55:01.984Z,9.78
2018-11-01T13:00:01.255Z,9.77
2018-11-01T13:05:01.576Z,9.76
2018-11-01T13:10:01.903Z,9.71
2018-11-01T13:15:01.149Z,9.64
2018-11-01T13:20:01.446Z,9.5
2018-11-01T13:25:01.732Z,9.45
2018-11-01T13:30:01.992Z,9.47
2018-11-01T13:35:01.332Z,9.57
2018-11-01T13:40:01.807Z,9.59
2018-11-01T13:45:02.022Z,9.62
2018-11-01T13:50:01.269Z,9.69
2018-11-01T13:55:01.569Z,9.81
2018-11-01T14:00:01.864Z,9.85
2018-11-01T14:05:01.145Z,9.9
2018-11-01T14:10:01.420Z,9.92
2018-11-01T14:15:02.158Z,9.9
2018-11-01T14:20:01.291Z,9.88
2018-11-01T14:25:01.383Z,9.88
2018-11-01T14:30:01.701Z,9.84
2018-11-01T14:35:01.997Z,9.84
2018-11-01T14:40:01.267Z,9.74
2018-11-01T14:45:01.575Z,9.74
2018-11-01T14:50:01.861Z,9.7
2018-11-01T14:55:02.460Z,9.66
2018-11-01T15:00:01.669Z,9.65
2018-11-01T15:05:01.943Z,9.64
2018-11-01T15:10:01.247Z,9.6
2018-11-01T15:15:01.630Z,9.59
2018-11-01T15:20:01.922Z,9.57
2018-11-01T15:25:01.186Z,9.59
2018-11-01T15:30:01.525Z,9.55
2018-11-01T15:35:01.393Z,9.48
2018-11-01T15:40:01.796Z,9.41
2018-11-01T15:45:01.451Z,9.41
2018-11-01T15:50:01.779Z,9.51
2018-11-01T15:55:02.060Z,9.31
2018-11-01T16:00:01.321Z,9.19
2018-11-01T16:05:01.676Z,9.25
2018-11-01T16:10:02.099Z,9.03
2018-11-01T16:15:01.654Z,8.92
2018-11-01T16:20:02.175Z,8.87
2018-11-01T16:25:01.413Z,8.87
2018-11-01T16:30:01.758Z,8.87
2018-11-01T16:35:02.044Z,8.83
2018-11-01T16:40:01.322Z,8.78
2018-11-01T16:45:01.709Z,8.88
2018-11-01T16:50:01.292Z,8.73
2018-11-01T16:55:01.622Z,8.66
2018-11-01T17:00:01.771Z,8.51
2018-11-01T17:05:01.154Z,8.44
2018-11-01T17:10:01.236Z,8.38
2018-11-01T17:15:01.713Z,8.36
2018-11-01T17:20:01.220Z,8.35
2018-11-01T17:25:01.670Z,8.29
2018-11-01T17:30:01.440Z,8.41
2018-11-01T17:35:01.746Z,8.34
2018-11-01T17:40:02.011Z,8.26
2018-11-01T17:45:01.328Z,8.19
2018-11-01T17:50:01.638Z,8.04
2018-11-01T17:55:01.922Z,7.9
2018-11-01T18:00:01.249Z,7.96
2018-11-01T18:05:01.607Z,7.88
2018-11-01T18:10:01.893Z,8
2018-11-01T18:15:01.216Z,7.92
2018-11-01T18:20:01.568Z,7.84
2018-11-01T18:25:01.884Z,7.75
2018-11-01T18:30:01.169Z,7.75
2018-11-01T18:35:01.574Z,7.83
2018-11-01T18:40:01.889Z,7.84
2018-11-01T18:45:01.149Z,7.97
2018-11-01T18:50:01.455Z,8.14
2018-11-01T18:55:01.226Z,8.23
2018-11-01T19:00:01.560Z,8.28
2018-11-01T19:05:01.570Z,8.37
2018-11-01T19:10:01.848Z,8.46
2018-11-01T19:15:01.132Z,8.49
2018-11-01T19:20:01.480Z,8.52
2018-11-01T19:25:01.845Z,8.58
2018-11-01T19:30:01.139Z,8.53
2018-11-01T19:35:01.465Z,8.47
2018-11-01T19:40:02.006Z,8.44
2018-11-01T19:45:01.985Z,8.43
2018-11-01T19:50:01.267Z,8.47
2018-11-01T19:55:01.609Z,8.49
2018-11-01T20:00:01.935Z,8.51
2018-11-01T20:05:01.292Z,8.51
2018-11-01T20:10:01.663Z,8.48
2018-11-01T20:15:01.160Z,8.49
2018-11-01T20:20:01.544Z,8.56
2018-11-01T20:25:01.841Z,8.57
2018-11-01T20:30:01.130Z,8.76
2018-11-01T20:35:01.452Z,9.04
2018-11-01T20:40:01.791Z,9.48
2018-11-01T20:45:02.063Z,9.71
2018-11-01T20:50:01.165Z,10.04
2018-11-01T20:55:01.624Z,10.14
2018-11-01T21:00:01.657Z,10.13
2018-11-01T21:05:02.085Z,10.09
2018-11-01T21:10:01.702Z,10.04
2018-11-01T21:15:01.226Z,9.85
2018-11-01T21:20:01.507Z,9.83
2018-11-01T21:25:01.845Z,9.81
2018-11-01T21:30:01.121Z,9.9
2018-11-01T21:35:01.641Z,10.08
2018-11-01T21:40:01.246Z,10.19
2018-11-01T21:45:01.597Z,10.25
2018-11-01T21:50:01.909Z,10.34
2018-11-01T21:55:01.220Z,10.38
2018-11-01T22:00:01.520Z,10.36
2018-11-01T22:05:01.855Z,10.29
2018-11-01T22:10:01.179Z,10.18
2018-11-01T22:15:01.494Z,10.2
2018-11-01T22:20:01.830Z,10.01
2018-11-01T22:25:01.106Z,9.75
2018-11-01T22:30:01.427Z,9.64
2018-11-01T22:35:01.734Z,9.57
2018-11-01T22:40:01.976Z,9.67
2018-11-01T22:45:01.275Z,9.75
2018-11-01T22:50:01.616Z,9.76
2018-11-01T22:55:01.910Z,9.84
2018-11-01T23:00:01.295Z,9.82
2018-11-01T23:05:01.253Z,9.97
2018-11-01T23:10:01.637Z,9.9
2018-11-01T23:15:01.927Z,9.83
2018-11-01T23:20:01.241Z,9.74
2018-11-01T23:25:01.560Z,9.7
2018-11-01T23:30:01.901Z,9.7
2018-11-01T23:35:01.682Z,9.81
2018-11-01T23:40:01.997Z,9.94
2018-11-01T23:45:01.995Z,9.98
2018-11-01T23:50:01.301Z,10.09
2018-11-01T23:55:01.615Z,10.16
